Time;durP1;ratioP1;P1;durP2;ratioP2;P2;SDS_P1;SDS_P2;PMS_P1;PMS_P2;Temp;Humidity;BMP_temperature;BMP_pressure;BME280_temperature;BME280_humidity;BME280_pressure;Samples;Min_cycle;Max_cycle;Signal;HPM_P1;HPM_P2
2022/12/13 00:00:29;;;;;;;70.50;34.37;;;-6.30;87.50;;;;;;5014284;28;20655;-86
2022/12/13 00:02:54;;;;;;;61.40;29.90;;;-6.30;87.50;;;;;;5013135;28;20223;-86
2022/12/13 00:05:20;;;;;;;62.77;30.73;;;-6.20;87.80;;;;;;5012903;28;20694;-86
2022/12/13 00:07:48;;;;;;;57.83;30.83;;;-6.20;88.00;;;;;;5014443;28;20204;-85
2022/12/13 00:10:14;;;;;;;57.33;29.43;;;-6.10;88.00;;;;;;5012796;28;20224;-86
2022/12/13 00:12:39;;;;;;;60.97;30.50;;;-6.10;88.00;;;;;;5014239;28;20627;-86
2022/12/13 00:15:05;;;;;;;48.97;27.53;;;-6.10;87.90;;;;;;5012783;28;20182;-86
2022/12/13 00:17:31;;;;;;;55.87;29.67;;;-6.30;87.70;;;;;;5013397;28;20185;-86
2022/12/13 00:19:57;;;;;;;59.63;30.03;;;-6.40;87.60;;;;;;5012581;28;20218;-86
2022/12/13 00:22:22;;;;;;;51.27;27.77;;;-6.40;87.50;;;;;;5012826;28;20177;-85
2022/12/13 00:24:48;;;;;;;53.53;27.47;;;-6.30;87.40;;;;;;5014161;28;20177;-86
2022/12/13 00:27:13;;;;;;;49.80;27.97;;;-6.40;87.30;;;;;;5012473;28;20231;-86
2022/12/13 00:29:39;;;;;;;53.03;29.20;;;-6.40;87.20;;;;;;5013688;28;20197;-86
2022/12/13 00:32:04;;;;;;;58.07;28.87;;;-6.40;87.10;;;;;;5012472;28;20232;-86
2022/12/13 00:34:30;;;;;;;53.17;28.50;;;-6.40;87.10;;;;;;5013716;28;20256;-86
2022/12/13 00:36:57;;;;;;;54.97;28.00;;;-6.50;87.00;;;;;;5013356;28;20180;-86
2022/12/13 00:39:23;;;;;;;54.17;28.60;;;-6.50;87.00;;;;;;5013568;28;20641;-87
2022/12/13 00:41:49;;;;;;;51.53;26.90;;;-6.60;86.90;;;;;;5012383;28;20217;-87
2022/12/13 00:44:14;;;;;;;53.67;28.10;;;-6.60;86.80;;;;;;5012468;28;20173;-87
2022/12/13 00:46:41;;;;;;;55.67;28.77;;;-6.60;86.80;;;;;;5013584;28;20197;-86
2022/12/13 00:49:09;;;;;;;57.77;29.37;;;-6.60;86.80;;;;;;5012295;28;20201;-86
2022/12/13 00:51:35;;;;;;;49.60;28.37;;;-6.50;86.70;;;;;;5012314;28;20169;-85
2022/12/13 00:54:01;;;;;;;51.47;27.90;;;-6.50;86.70;;;;;;5012231;28;20173;-85
2022/12/13 00:56:29;;;;;;;50.97;26.57;;;-6.50;86.60;;;;;;5012179;28;20185;-85
2022/12/13 00:58:55;;;;;;;60.03;29.43;;;-6.50;86.60;;;;;;5012160;28;20201;-85
2022/12/13 01:01:26;;;;;;;64.03;31.07;;;-6.50;86.60;;;;;;5013411;28;20169;-85
2022/12/13 01:03:53;;;;;;;60.83;31.07;;;-6.20;87.10;;;;;;5012102;28;20640;-85
2022/12/13 01:06:22;;;;;;;58.77;27.87;;;-6.10;87.30;;;;;;5013323;28;20296;-85
2022/12/13 01:08:47;;;;;;;51.73;28.27;;;-6.00;87.40;;;;;;5013170;28;20199;-85
2022/12/13 01:11:14;;;;;;;50.13;28.20;;;-6.00;87.40;;;;;;5013228;28;20260;-85
2022/12/13 01:13:39;;;;;;;53.13;28.50;;;-6.00;87.40;;;;;;5011969;28;20177;-86
2022/12/13 01:16:10;;;;;;;51.03;28.00;;;-6.00;87.40;;;;;;5011860;28;20228;-85
2022/12/13 01:18:36;;;;;;;52.27;28.07;;;-5.80;87.50;;;;;;5013179;28;20212;-85
2022/12/13 01:21:05;;;;;;;50.50;29.27;;;-5.80;87.60;;;;;;5013529;28;20172;-85
2022/12/13 01:23:31;;;;;;;57.50;29.10;;;-5.70;87.60;;;;;;5013220;28;20177;-85
2022/12/13 01:25:57;;;;;;;63.20;29.03;;;-5.70;87.60;;;;;;5013092;28;20220;-85
2022/12/13 01:28:23;;;;;;;56.37;31.50;;;-5.70;87.50;;;;;;5012063;28;20675;-85
2022/12/13 01:30:58;;;;;;;56.60;30.60;;;-5.70;87.50;;;;;;5011866;28;20181;-86
2022/12/13 01:33:24;;;;;;;57.70;30.97;;;-5.80;87.50;;;;;;5013086;28;20165;-85
2022/12/13 01:35:50;;;;;;;57.60;30.27;;;-5.80;87.50;;;;;;5011791;28;20182;-86
2022/12/13 01:38:16;;;;;;;55.00;28.20;;;-5.80;87.50;;;;;;5011747;28;20709;-85
2022/12/13 01:40:46;;;;;;;59.37;28.93;;;-5.80;87.70;;;;;;5012952;28;20681;-85
2022/12/13 01:43:14;;;;;;;56.17;28.43;;;-5.80;87.70;;;;;;5012968;28;20260;-85
2022/12/13 01:45:40;;;;;;;67.93;32.03;;;-5.80;87.80;;;;;;5012894;28;20233;-85
2022/12/13 01:48:10;;;;;;;58.97;31.93;;;-5.70;88.00;;;;;;5011545;28;20247;-85
2022/12/13 01:50:39;;;;;;;62.77;31.23;;;-5.60;88.10;;;;;;5014503;28;20204;-85
2022/12/13 01:53:06;;;;;;;60.87;31.67;;;-5.60;88.10;;;;;;5015519;28;20545;-85
2022/12/13 01:55:35;;;;;;;60.40;30.50;;;-5.50;88.20;;;;;;5015624;28;20212;-85
2022/12/13 01:58:02;;;;;;;63.27;31.53;;;-5.50;88.30;;;;;;5015215;28;20178;-85
2022/12/13 02:00:28;;;;;;;62.30;32.07;;;-5.40;88.40;;;;;;5015310;28;20185;-86
2022/12/13 02:02:58;;;;;;;64.03;33.80;;;-5.30;88.70;;;;;;5015542;28;20258;-85
2022/12/13 02:05:35;;;;;;;63.63;32.30;;;-5.10;89.10;;;;;;5015192;28;20744;-85
2022/12/13 02:08:01;;;;;;;65.30;33.73;;;-5.00;89.50;;;;;;5016447;28;20166;-85
2022/12/13 02:10:29;;;;;;;64.47;33.40;;;-4.90;89.80;;;;;;5015113;28;20185;-85
2022/12/13 02:12:55;;;;;;;68.30;34.27;;;-4.90;89.90;;;;;;5016272;28;20178;-85
2022/12/13 02:15:21;;;;;;;72.13;34.80;;;-5.00;89.90;;;;;;5016522;28;20181;-86
2022/12/13 02:18:11;;;;;;;64.50;34.00;;;-5.00;90.10;;;;;;5016344;28;20195;-85
2022/12/13 02:20:54;;;;;;;65.53;32.43;;;-5.00;90.10;;;;;;5016097;28;20176;-86
2022/12/13 02:23:53;;;;;;;64.83;33.83;;;-5.00;90.10;;;;;;5016383;28;20165;-85
2022/12/13 02:26:53;;;;;;;61.00;32.33;;;-4.90;90.20;;;;;;5014752;28;20211;-85
2022/12/13 02:29:36;;;;;;;66.67;33.87;;;-4.90;90.20;;;;;;5014611;28;20673;-85
2022/12/13 02:32:28;;;;;;;59.47;30.87;;;-4.90;90.30;;;;;;5016065;28;20157;-86
2022/12/13 02:35:22;;;;;;;63.63;30.73;;;-4.80;90.30;;;;;;5014790;28;20177;-84
2022/12/13 02:37:58;;;;;;;59.70;31.47;;;-4.80;90.30;;;;;;5015231;28;20165;-86
2022/12/13 02:40:33;;;;;;;61.50;32.97;;;-4.80;90.40;;;;;;5014561;28;20546;-86
2022/12/13 02:43:29;;;;;;;60.90;33.63;;;-4.80;90.40;;;;;;5014561;28;20173;-86
2022/12/13 02:45:59;;;;;;;67.33;34.47;;;-4.70;90.50;;;;;;5016007;28;20194;-86
2022/12/13 02:48:30;;;;;;;65.70;33.67;;;-4.70;90.50;;;;;;5014349;28;20202;-86
2022/12/13 02:50:58;;;;;;;71.10;33.87;;;-4.60;90.60;;;;;;5014445;28;20619;-86
2022/12/13 02:53:25;;;;;;;68.50;33.67;;;-4.60;90.60;;;;;;5014331;28;20550;-86
2022/12/13 02:55:51;;;;;;;61.60;31.87;;;-4.60;90.70;;;;;;5015628;28;20615;-86
2022/12/13 02:58:26;;;;;;;68.57;35.10;;;-4.50;90.70;;;;;;5015418;28;20206;-86
2022/12/13 03:01:26;;;;;;;63.03;34.07;;;-4.50;90.80;;;;;;5015075;28;20240;-86
2022/12/13 03:04:13;;;;;;;62.53;33.13;;;-4.50;90.80;;;;;;5015734;28;20178;-86
2022/12/13 03:06:45;;;;;;;72.20;33.90;;;-4.50;90.80;;;;;;5014027;28;20727;-86
2022/12/13 03:09:38;;;;;;;67.63;33.47;;;-4.50;90.90;;;;;;5015237;28;20189;-86
2022/12/13 03:15:46;;;;;;;63.50;32.67;;;-4.50;91.00;;;;;;5015822;28;20212;-86
2022/12/13 03:18:17;;;;;;;64.30;34.37;;;-4.50;91.00;;;;;;5015132;28;20212;-86
2022/12/13 03:20:52;;;;;;;72.37;36.83;;;-4.60;91.10;;;;;;5013874;28;20559;-86
2022/12/13 03:23:19;;;;;;;63.43;34.33;;;-4.60;91.20;;;;;;5013794;28;20179;-86
2022/12/13 03:25:48;;;;;;;69.60;32.63;;;-4.50;91.20;;;;;;5013674;28;20197;-86
2022/12/13 03:28:14;;;;;;;62.83;32.70;;;-4.60;91.20;;;;;;5014804;28;20181;-85
2022/12/13 03:30:39;;;;;;;68.67;34.57;;;-4.60;91.30;;;;;;5013567;28;20232;-86
2022/12/13 03:33:05;;;;;;;70.57;35.73;;;-4.50;91.40;;;;;;5013569;28;20177;-86
2022/12/13 03:35:31;;;;;;;70.50;36.00;;;-4.60;91.40;;;;;;5013463;28;20177;-86
2022/12/13 03:37:57;;;;;;;74.23;34.27;;;-4.60;91.40;;;;;;5013407;28;20185;-86
2022/12/13 03:40:23;;;;;;;80.73;35.17;;;-4.50;91.50;;;;;;5013442;28;20189;-86
2022/12/13 03:42:48;;;;;;;69.67;34.57;;;-4.50;91.50;;;;;;5013380;28;20301;-86
2022/12/13 03:45:14;;;;;;;65.43;33.40;;;-4.50;91.40;;;;;;5013283;28;20181;-85
2022/12/13 03:47:39;;;;;;;64.90;34.37;;;-4.50;91.40;;;;;;5014793;28;20173;-85
2022/12/13 03:50:05;;;;;;;64.13;32.20;;;-4.60;91.40;;;;;;5013571;28;20192;-86
2022/12/13 03:52:31;;;;;;;69.80;34.43;;;-4.60;91.30;;;;;;5013165;28;20179;-86
2022/12/13 03:54:56;;;;;;;58.73;33.60;;;-4.60;91.30;;;;;;5013148;28;20185;-86
2022/12/13 03:57:22;;;;;;;59.37;32.17;;;-4.60;91.30;;;;;;5013139;28;20549;-86
2022/12/13 03:59:47;;;;;;;59.77;32.67;;;-4.70;91.30;;;;;;5014251;28;20201;-86
2022/12/13 04:02:13;;;;;;;62.20;32.57;;;-4.60;91.30;;;;;;5013515;28;20174;-86
2022/12/13 04:04:38;;;;;;;63.37;33.17;;;-4.60;91.40;;;;;;5012942;28;20183;-86
2022/12/13 04:07:04;;;;;;;63.83;33.13;;;-4.60;91.40;;;;;;5012825;28;20209;-86
2022/12/13 04:09:29;;;;;;;66.40;35.77;;;-4.60;91.40;;;;;;5014271;28;20248;-86
2022/12/13 04:14:39;;;;;;;64.00;32.13;;;-4.50;91.40;;;;;;5014645;28;20308;-86
2022/12/13 04:17:04;;;;;;;65.07;33.87;;;-4.50;91.50;;;;;;5014022;28;20256;-86
2022/12/13 04:19:30;;;;;;;68.87;34.53;;;-4.40;91.50;;;;;;5012527;28;20217;-85
2022/12/13 04:21:55;;;;;;;68.87;35.63;;;-4.30;91.60;;;;;;5012636;28;20169;-85
2022/12/13 04:24:22;;;;;;;69.47;36.30;;;-4.30;91.60;;;;;;5012668;28;20556;-86
2022/12/13 04:26:47;;;;;;;64.13;33.03;;;-4.30;91.50;;;;;;5012653;28;20202;-86
2022/12/13 04:29:13;;;;;;;65.43;33.13;;;-4.30;91.60;;;;;;5013753;28;20186;-86
2022/12/13 04:31:38;;;;;;;67.90;34.57;;;-4.30;91.50;;;;;;5014104;28;20176;-86
2022/12/13 04:34:04;;;;;;;68.80;35.30;;;-4.30;91.50;;;;;;5012555;28;20178;-86
2022/12/13 04:36:30;;;;;;;67.27;33.97;;;-4.30;91.50;;;;;;5013773;28;20177;-86
2022/12/13 04:38:55;;;;;;;61.90;33.63;;;-4.40;91.50;;;;;;5013663;28;20198;-85
2022/12/13 04:41:21;;;;;;;74.17;35.20;;;-4.40;91.50;;;;;;5013697;28;20221;-85
2022/12/13 04:43:51;;;;;;;66.50;35.50;;;-4.40;91.50;;;;;;5012600;28;20186;-85
2022/12/13 04:46:19;;;;;;;67.10;34.47;;;-4.40;91.50;;;;;;5012401;28;20200;-85
2022/12/13 04:48:44;;;;;;;65.40;34.73;;;-4.40;91.50;;;;;;5013722;28;20196;-86
2022/12/13 04:51:10;;;;;;;63.73;33.27;;;-4.40;91.50;;;;;;5013472;28;20172;-86
2022/12/13 04:53:35;;;;;;;67.70;34.40;;;-4.40;91.50;;;;;;5012193;28;20189;-86
2022/12/13 04:56:03;;;;;;;59.73;34.00;;;-4.30;91.50;;;;;;5013439;28;20181;-86
2022/12/13 04:58:28;;;;;;;64.90;34.97;;;-4.30;91.50;;;;;;5013431;28;20210;-86
2022/12/13 05:00:54;;;;;;;63.33;34.43;;;-4.30;91.50;;;;;;5012166;28;20181;-86
2022/12/13 05:03:19;;;;;;;66.00;34.53;;;-4.30;91.50;;;;;;5012089;28;20189;-86
2022/12/13 05:05:45;;;;;;;66.07;34.23;;;-4.20;91.60;;;;;;5013271;28;20205;-86
2022/12/13 05:08:11;;;;;;;68.47;34.40;;;-4.20;91.60;;;;;;5012264;28;20220;-86
2022/12/13 05:10:36;;;;;;;66.70;35.43;;;-4.10;91.70;;;;;;5012107;28;20264;-86
2022/12/13 05:13:02;;;;;;;72.50;36.47;;;-4.10;91.60;;;;;;5012191;28;20182;-86
2022/12/13 05:15:29;;;;;;;66.70;34.33;;;-4.10;91.70;;;;;;5012076;28;20596;-86
2022/12/13 05:17:58;;;;;;;65.93;35.00;;;-4.10;91.70;;;;;;5013390;28;20174;-86
2022/12/13 05:20:24;;;;;;;65.57;34.90;;;-4.10;91.70;;;;;;5035340;23;20708;-87
2022/12/13 05:22:50;;;;;;;67.17;36.33;;;-4.00;91.70;;;;;;5012251;28;20169;-87
2022/12/13 05:25:15;;;;;;;71.67;35.80;;;-4.00;91.70;;;;;;5015800;28;20677;-87
2022/12/13 05:27:40;;;;;;;70.07;36.67;;;-3.90;91.80;;;;;;5016144;28;20177;-87
2022/12/13 05:30:07;;;;;;;70.73;35.97;;;-3.90;91.80;;;;;;5015913;28;20185;-87
2022/12/13 05:32:37;;;;;;;72.83;34.97;;;-3.90;91.80;;;;;;5015998;28;20181;-87
2022/12/13 05:35:03;;;;;;;67.53;35.93;;;-3.90;91.80;;;;;;5016043;28;20166;-87
2022/12/13 05:37:29;;;;;;;72.27;35.63;;;-3.90;91.80;;;;;;5015797;28;20182;-87
2022/12/13 05:39:54;;;;;;;69.97;36.70;;;-3.90;91.80;;;;;;5015833;28;20290;-87
2022/12/13 05:42:20;;;;;;;62.77;35.40;;;-3.90;91.80;;;;;;5015958;28;20172;-87
2022/12/13 05:44:45;;;;;;;68.53;36.60;;;-3.90;91.80;;;;;;5016985;28;20176;-87
2022/12/13 05:47:11;;;;;;;71.57;36.23;;;-3.80;91.90;;;;;;5015765;28;20204;-87
2022/12/13 05:49:36;;;;;;;70.90;37.83;;;-3.90;91.90;;;;;;5015729;28;20202;-87
2022/12/13 05:52:02;;;;;;;63.77;33.50;;;-3.90;91.90;;;;;;5015712;28;20173;-87
2022/12/13 05:54:27;;;;;;;77.20;36.83;;;-3.80;91.90;;;;;;5015660;28;20216;-87
2022/12/13 05:56:53;;;;;;;69.70;35.90;;;-3.80;91.90;;;;;;5015447;28;20583;-87
2022/12/13 05:59:18;;;;;;;71.87;37.03;;;-3.90;91.90;;;;;;5015552;28;20247;-87
2022/12/13 06:01:44;;;;;;;69.07;36.00;;;-3.90;91.90;;;;;;5016982;28;20178;-87
2022/12/13 06:04:11;;;;;;;65.73;35.20;;;-3.80;92.00;;;;;;5016638;28;20269;-87
2022/12/13 06:06:36;;;;;;;70.47;36.70;;;-3.80;91.90;;;;;;5016537;28;20244;-87
2022/12/13 06:09:02;;;;;;;72.00;37.03;;;-3.90;91.90;;;;;;5016447;28;20218;-87
2022/12/13 06:11:28;;;;;;;73.67;36.20;;;-3.80;92.00;;;;;;5015343;28;20527;-87
2022/12/13 06:13:53;;;;;;;69.87;36.10;;;-3.80;92.00;;;;;;5016707;28;20181;-87
2022/12/13 06:16:19;;;;;;;77.13;38.00;;;-3.90;91.90;;;;;;5015268;28;20175;-87
2022/12/13 06:18:45;;;;;;;69.93;36.77;;;-3.90;91.90;;;;;;5015000;28;20721;-87
2022/12/13 06:21:10;;;;;;;64.53;35.57;;;-3.90;91.90;;;;;;5016711;28;20169;-87
2022/12/13 06:23:36;;;;;;;72.17;36.97;;;-4.00;91.90;;;;;;5016294;28;20185;-87
2022/12/13 06:26:03;;;;;;;73.80;36.30;;;-4.10;91.90;;;;;;5015101;28;20209;-87
2022/12/13 06:28:29;;;;;;;73.23;35.33;;;-4.10;91.80;;;;;;5016173;28;20269;-87
2022/12/13 06:30:57;;;;;;;75.77;35.27;;;-4.20;91.70;;;;;;5015137;28;20649;-87
2022/12/13 06:33:26;;;;;;;72.10;35.97;;;-4.30;91.70;;;;;;5015102;28;20178;-88
2022/12/13 06:35:55;;;;;;;69.23;35.50;;;-4.30;91.70;;;;;;5014244;28;20392;-87
2022/12/13 06:38:21;;;;;;;66.00;34.43;;;-4.40;91.70;;;;;;5015811;28;20181;-87
2022/12/13 06:40:47;;;;;;;64.97;36.20;;;-4.40;91.70;;;;;;5016175;28;20635;-87
2022/12/13 06:43:12;;;;;;;73.90;35.97;;;-4.40;91.70;;;;;;5015585;28;20188;-87
2022/12/13 06:45:39;;;;;;;72.83;35.90;;;-4.50;91.70;;;;;;5015475;28;20288;-87
2022/12/13 06:48:05;;;;;;;65.47;34.23;;;-4.40;91.70;;;;;;5016843;28;20174;-87
2022/12/13 06:50:31;;;;;;;81.23;38.57;;;-4.50;91.70;;;;;;5016055;28;20204;-87
2022/12/13 06:52:56;;;;;;;71.43;33.40;;;-4.50;91.60;;;;;;5015450;28;20184;-87
2022/12/13 06:55:22;;;;;;;67.33;35.70;;;-4.50;91.60;;;;;;5015816;28;20181;-87
2022/12/13 06:57:48;;;;;;;66.73;36.00;;;-4.60;91.60;;;;;;5015822;28;20182;-87
2022/12/13 07:00:14;;;;;;;65.77;34.67;;;-4.60;91.50;;;;;;5015847;28;20197;-88
2022/12/13 07:02:39;;;;;;;66.00;36.17;;;-4.60;91.50;;;;;;5015731;28;20183;-87
2022/12/13 07:05:05;;;;;;;71.63;35.93;;;-4.60;91.50;;;;;;5015561;28;20210;-87
2022/12/13 07:07:31;;;;;;;70.20;33.73;;;-4.50;91.50;;;;;;5015871;28;20220;-87
2022/12/13 07:09:57;;;;;;;69.17;36.07;;;-4.60;91.50;;;;;;5016564;28;20205;-88
2022/12/13 07:12:23;;;;;;;64.70;34.60;;;-4.60;91.40;;;;;;5015481;28;20224;-87
2022/12/13 07:14:48;;;;;;;69.17;36.77;;;-4.60;91.40;;;;;;5015368;28;20213;-86
2022/12/13 07:17:15;;;;;;;79.10;39.13;;;-4.60;91.40;;;;;;5015707;28;20186;-87
2022/12/13 07:19:40;;;;;;;68.80;38.20;;;-4.60;91.40;;;;;;5016554;28;20249;-88
2022/12/13 07:22:06;;;;;;;71.93;39.50;;;-4.60;91.40;;;;;;5015251;28;20196;-87
2022/12/13 07:24:33;;;;;;;71.23;38.07;;;-4.60;91.40;;;;;;5015460;28;20315;-87
2022/12/13 07:26:58;;;;;;;73.43;39.57;;;-4.50;91.50;;;;;;5015381;28;20619;-87
2022/12/13 07:29:24;;;;;;;72.03;38.47;;;-4.50;91.50;;;;;;5016932;28;20252;-87
2022/12/13 07:31:49;;;;;;;76.67;38.90;;;-4.50;91.50;;;;;;5016675;28;20220;-88
2022/12/13 07:34:15;;;;;;;66.90;37.73;;;-4.50;91.50;;;;;;5015344;28;20202;-87
2022/12/13 07:36:40;;;;;;;68.07;35.57;;;-4.50;91.50;;;;;;5015302;28;20187;-87
2022/12/13 07:39:06;;;;;;;80.60;41.63;;;-4.40;91.60;;;;;;5014863;28;20205;-87
2022/12/13 07:41:31;;;;;;;76.13;40.70;;;-4.40;91.60;;;;;;5015148;28;20192;-87
2022/12/13 07:43:57;;;;;;;68.93;35.63;;;-4.40;91.60;;;;;;5015151;28;20189;-87
2022/12/13 07:46:23;;;;;;;71.73;36.07;;;-4.30;91.70;;;;;;5014560;28;20208;-87
2022/12/13 07:48:49;;;;;;;69.40;33.90;;;-4.30;91.80;;;;;;5015649;28;20743;-87
2022/12/13 07:51:14;;;;;;;71.13;35.83;;;-4.20;91.80;;;;;;5016179;28;20212;-87
2022/12/13 07:53:40;;;;;;;71.40;36.50;;;-4.20;91.80;;;;;;5015065;28;20178;-87
2022/12/13 07:56:08;;;;;;;87.53;42.57;;;-4.10;91.90;;;;;;5016210;28;20557;-87
2022/12/13 07:58:34;;;;;;;88.30;43.93;;;-4.10;91.90;;;;;;5014458;28;20554;-87
2022/12/13 08:01:06;;;;;;;90.70;44.23;;;-4.10;91.90;;;;;;5014988;28;20177;-87
2022/12/13 08:03:32;;;;;;;76.60;38.50;;;-4.00;91.90;;;;;;5014603;28;20173;-87
2022/12/13 08:06:10;;;;;;;73.57;36.83;;;-3.90;91.90;;;;;;5014853;28;20201;-87
2022/12/13 08:08:37;;;;;;;71.20;37.03;;;-3.90;92.00;;;;;;5015852;28;20193;-87
2022/12/13 08:11:11;;;;;;;75.43;36.53;;;-3.80;92.00;;;;;;5016072;28;20237;-87
2022/12/13 08:13:37;;;;;;;72.63;36.23;;;-3.80;92.00;;;;;;5014967;28;20167;-86
2022/12/13 08:16:05;;;;;;;70.40;35.30;;;-3.80;91.90;;;;;;5015088;28;20256;-86
2022/12/13 08:18:31;;;;;;;69.40;34.80;;;-3.70;92.00;;;;;;5014667;28;20200;-86
2022/12/13 08:21:03;;;;;;;69.43;36.10;;;-3.70;92.00;;;;;;5014218;28;20204;-87
2022/12/13 08:23:32;;;;;;;71.43;35.73;;;-3.70;92.00;;;;;;5013205;28;20280;-88
2022/12/13 08:25:59;;;;;;;69.73;35.83;;;-3.60;92.00;;;;;;5013439;28;20694;-87
2022/12/13 08:28:25;;;;;;;65.10;35.23;;;-3.60;92.00;;;;;;5014413;28;20189;-88
2022/12/13 08:30:52;;;;;;;64.60;34.07;;;-3.60;92.00;;;;;;5014461;28;20185;-87
2022/12/13 08:33:18;;;;;;;71.87;35.53;;;-3.60;92.00;;;;;;5015918;28;20185;-87
2022/12/13 08:35:44;;;;;;;73.90;37.07;;;-3.50;92.00;;;;;;5014640;28;20734;-87
2022/12/13 08:38:10;;;;;;;60.30;31.37;;;-3.60;91.80;;;;;;5015789;28;20187;-86
2022/12/13 08:40:36;;;;;;;71.03;32.83;;;-3.60;91.80;;;;;;5015589;28;20296;-87
2022/12/13 08:43:02;;;;;;;67.47;32.63;;;-3.60;91.70;;;;;;5015474;28;20185;-88
2022/12/13 08:45:29;;;;;;;61.13;34.17;;;-3.50;91.70;;;;;;5014585;28;20654;-86
2022/12/13 08:47:58;;;;;;;66.83;33.77;;;-3.60;91.60;;;;;;5015927;28;20169;-87
2022/12/13 08:50:24;;;;;;;67.67;37.00;;;-3.50;91.70;;;;;;5014532;28;20206;-87
2022/12/13 08:52:50;;;;;;;64.67;33.37;;;-3.50;91.70;;;;;;5015293;28;20300;-87
2022/12/13 08:55:16;;;;;;;68.63;32.93;;;-3.40;91.70;;;;;;5016296;28;20173;-88
2022/12/13 08:57:43;;;;;;;68.03;35.43;;;-3.40;91.70;;;;;;5015026;28;20597;-87
2022/12/13 09:00:12;;;;;;;69.27;35.67;;;-3.40;91.60;;;;;;5014717;28;20671;-87
2022/12/13 09:02:37;;;;;;;68.83;35.83;;;-3.40;91.60;;;;;;5014805;28;20189;-87
2022/12/13 09:05:03;;;;;;;62.80;33.23;;;-3.30;91.70;;;;;;5014254;28;20174;-88
2022/12/13 09:07:29;;;;;;;68.33;36.37;;;-3.30;91.50;;;;;;5014357;28;20197;-88
2022/12/13 09:09:54;;;;;;;69.80;35.77;;;-3.30;91.50;;;;;;5013970;28;20201;-87
2022/12/13 09:12:20;;;;;;;69.60;33.67;;;-3.30;91.50;;;;;;5014285;28;20632;-87
2022/12/13 09:14:45;;;;;;;68.43;35.03;;;-3.20;91.50;;;;;;5014866;28;20177;-89
2022/12/13 09:17:13;;;;;;;63.90;34.50;;;-3.20;91.40;;;;;;5017173;28;20182;-87
2022/12/13 09:19:39;;;;;;;68.10;35.60;;;-3.20;91.40;;;;;;5016526;28;20703;-87
2022/12/13 09:22:04;;;;;;;69.57;33.90;;;-3.20;91.40;;;;;;5015547;28;20192;-87
2022/12/13 09:24:30;;;;;;;60.07;31.97;;;-3.10;91.40;;;;;;5014354;28;20183;-88
2022/12/13 09:26:56;;;;;;;59.90;32.47;;;-3.10;91.30;;;;;;5013364;28;20216;-88
2022/12/13 09:29:21;;;;;;;65.57;33.93;;;-3.10;91.30;;;;;;5013705;28;20228;-87
2022/12/13 09:31:46;;;;;;;62.77;33.23;;;-3.10;91.30;;;;;;5012932;28;20180;-89
2022/12/13 09:34:12;;;;;;;66.20;34.83;;;-3.00;91.30;;;;;;5016776;28;20663;-88
2022/12/13 09:36:38;;;;;;;61.93;33.67;;;-3.10;91.20;;;;;;5017501;28;20183;-86
2022/12/13 09:39:04;;;;;;;66.43;32.67;;;-3.00;91.20;;;;;;5017859;28;20201;-87
2022/12/13 09:41:45;;;;;;;61.43;30.73;;;-3.00;91.30;;;;;;5015395;28;20556;-87
2022/12/13 09:44:38;;;;;;;63.90;33.80;;;-3.00;91.30;;;;;;5016940;28;20162;-88
2022/12/13 09:47:11;;;;;;;68.73;32.07;;;-3.00;91.30;;;;;;5013053;28;20197;-88
2022/12/13 09:49:44;;;;;;;62.93;32.57;;;-2.90;91.30;;;;;;5013617;28;20698;-89
2022/12/13 09:52:15;;;;;;;67.70;32.33;;;-2.90;91.30;;;;;;5013674;28;20194;-88
2022/12/13 09:54:40;;;;;;;57.20;30.60;;;-2.90;91.30;;;;;;5013528;28;20169;-87
2022/12/13 09:57:23;;;;;;;63.87;34.30;;;-2.80;91.30;;;;;;5015759;28;20178;-87
2022/12/13 09:59:49;;;;;;;63.40;33.70;;;-2.70;91.30;;;;;;5017962;28;20734;-86
2022/12/13 10:02:30;;;;;;;81.60;41.53;;;-2.80;91.20;;;;;;5018955;28;20170;-87
2022/12/13 10:05:17;;;;;;;71.87;36.90;;;-2.60;91.40;;;;;;5016298;28;20169;-87
2022/12/13 10:07:42;;;;;;;61.77;34.33;;;-2.50;91.30;;;;;;5016584;28;20269;-86
2022/12/13 10:10:10;;;;;;;60.93;33.40;;;-2.50;91.20;;;;;;5016938;28;20285;-88
2022/12/13 10:12:37;;;;;;;61.03;34.97;;;-2.50;91.10;;;;;;5019837;28;20267;-87
2022/12/13 10:15:03;;;;;;;56.23;33.80;;;-2.60;91.10;;;;;;5019910;28;20188;-87
2022/12/13 10:17:34;;;;;;;55.50;32.63;;;-2.60;91.00;;;;;;5018071;28;20655;-92
2022/12/13 10:20:01;;;;;;;64.83;35.10;;;-2.60;91.10;;;;;;5015347;28;20216;-91
2022/12/13 10:22:27;;;;;;;66.50;33.97;;;-2.50;91.10;;;;;;5016584;28;20203;-90
2022/12/13 10:24:53;;;;;;;64.07;35.00;;;-2.50;91.10;;;;;;5020970;28;20173;-87
2022/12/13 10:27:26;;;;;;;66.63;35.17;;;-2.50;91.10;;;;;;5024437;28;20208;-87
2022/12/13 10:30:24;;;;;;;58.13;33.37;;;-2.40;91.10;;;;;;5023061;28;20199;-87
2022/12/13 10:32:58;;;;;;;55.07;31.83;;;-2.40;91.20;;;;;;5019226;28;20175;-91
2022/12/13 10:35:37;;;;;;;59.43;33.10;;;-2.30;91.20;;;;;;5017889;28;20185;-89
2022/12/13 10:38:15;;;;;;;66.87;32.97;;;-2.30;91.10;;;;;;5022527;28;20183;-88
2022/12/13 10:40:44;;;;;;;67.03;35.80;;;-2.30;91.20;;;;;;5019871;28;20173;-87
2022/12/13 10:43:16;;;;;;;60.60;33.30;;;-2.20;91.20;;;;;;5020378;28;20228;-88
2022/12/13 10:45:47;;;;;;;59.47;32.47;;;-2.20;91.20;;;;;;5021490;28;20199;-88
2022/12/13 10:48:22;;;;;;;60.03;33.33;;;-2.10;91.20;;;;;;5019805;28;20191;-87
2022/12/13 10:51:07;;;;;;;61.47;33.27;;;-2.10;91.30;;;;;;5023291;28;20164;-87
2022/12/13 10:53:37;;;;;;;64.67;33.70;;;-2.10;91.30;;;;;;5016501;28;20634;-89
2022/12/13 10:56:03;;;;;;;65.70;34.33;;;-2.00;91.40;;;;;;5015564;28;20181;-88
2022/12/13 10:58:41;;;;;;;73.57;35.17;;;-1.90;91.40;;;;;;5017754;28;20179;-88
2022/12/13 11:01:22;;;;;;;63.70;35.20;;;-1.90;91.40;;;;;;5017338;28;20637;-88
2022/12/13 11:04:04;;;;;;;42.63;21.13;;;-1.90;91.50;;;;;;5016192;28;20181;-88
2022/12/13 11:06:41;;;;;;;63.97;35.57;;;-1.90;91.50;;;;;;5016211;28;20717;-89
2022/12/13 11:09:14;;;;;;;67.33;37.00;;;-1.90;91.70;;;;;;5016357;28;20228;-88
2022/12/13 11:11:40;;;;;;;66.47;35.30;;;-1.80;91.70;;;;;;5018172;28;20165;-89
2022/12/13 11:14:12;;;;;;;52.17;30.50;;;-1.80;91.70;;;;;;5016577;28;20176;-89
2022/12/13 11:16:40;;;;;;;75.43;38.40;;;-1.80;91.70;;;;;;5015613;28;20206;-87
2022/12/13 11:19:23;;;;;;;49.87;28.33;;;-1.80;91.70;;;;;;5038706;23;20262;-88
2022/12/13 11:21:51;;;;;;;75.27;38.97;;;-1.80;91.70;;;;;;5013844;28;20174;-87
2022/12/13 11:24:50;;;;;;;67.73;35.67;;;-1.80;91.70;;;;;;5015253;28;20652;-87
2022/12/13 11:27:57;;;;;;;70.33;39.70;;;-1.80;91.70;;;;;;5007632;28;20232;-87
2022/12/13 11:30:45;;;;;;;63.30;33.73;;;-1.80;91.70;;;;;;5014644;28;20201;-87
2022/12/13 11:33:31;;;;;;;51.30;27.07;;;-1.80;91.80;;;;;;5013848;28;20271;-87
2022/12/13 11:36:33;;;;;;;76.37;37.13;;;-1.80;91.60;;;;;;5015071;28;20203;-87
2022/12/13 11:39:18;;;;;;;63.10;32.77;;;-1.80;91.80;;;;;;5014991;28;20197;-88
2022/12/13 11:42:04;;;;;;;63.07;32.20;;;-1.70;91.80;;;;;;5013801;28;20169;-87
2022/12/13 11:44:42;;;;;;;68.40;37.43;;;-1.70;91.90;;;;;;5015019;28;20299;-89
2022/12/13 11:47:19;;;;;;;68.83;35.67;;;-1.60;92.00;;;;;;5015065;28;20183;-88
2022/12/13 11:49:47;;;;;;;75.03;37.67;;;-1.60;92.00;;;;;;5013485;28;20206;-88
2022/12/13 11:52:34;;;;;;;68.60;34.93;;;-1.60;92.00;;;;;;5013496;28;20181;-87
2022/12/13 11:55:05;;;;;;;65.80;38.70;;;-1.60;92.00;;;;;;5013590;28;20657;-88
2022/12/13 11:58:11;;;;;;;55.90;30.30;;;-1.50;92.00;;;;;;5014948;28;20160;-89
2022/12/13 12:00:43;;;;;;;75.67;40.13;;;-1.60;91.90;;;;;;4996571;28;20203;-87
2022/12/13 12:03:22;;;;;;;87.83;42.57;;;-1.50;92.00;;;;;;5013535;28;20229;-85
2022/12/13 12:05:58;;;;;;;70.37;37.63;;;-1.50;92.00;;;;;;5014549;28;20229;-84
2022/12/13 12:08:49;;;;;;;80.10;42.67;;;-1.50;91.90;;;;;;5014589;28;20156;-85
2022/12/13 12:11:58;;;;;;;83.93;43.47;;;-1.40;92.00;;;;;;5014316;28;20177;-85
2022/12/13 12:14:52;;;;;;;78.93;40.37;;;-1.40;92.00;;;;;;5013536;28;20647;-85
2022/12/13 12:17:23;;;;;;;83.07;42.00;;;-1.40;92.00;;;;;;5016675;28;20160;-85
2022/12/13 12:19:55;;;;;;;84.43;41.17;;;-1.30;92.00;;;;;;5013636;28;20209;-85
2022/12/13 12:22:42;;;;;;;83.13;40.47;;;-1.30;92.00;;;;;;5013198;28;20175;-85
2022/12/13 12:25:10;;;;;;;65.57;35.63;;;-1.30;91.90;;;;;;5015924;28;20581;-85
2022/12/13 12:28:00;;;;;;;67.17;38.77;;;-1.00;92.00;;;;;;5013781;28;20197;-85
2022/12/13 12:30:44;;;;;;;79.03;42.03;;;-0.90;91.90;;;;;;5014252;28;20190;-85
2022/12/13 12:33:46;;;;;;;82.77;43.20;;;-1.00;91.60;;;;;;5012179;28;20232;-85
2022/12/13 12:36:41;;;;;;;74.47;40.77;;;-0.90;91.60;;;;;;5014222;28;20212;-85
2022/12/13 12:39:35;;;;;;;86.60;44.33;;;-1.00;91.40;;;;;;5012703;28;20204;-85
2022/12/13 12:42:30;;;;;;;69.50;38.50;;;-1.00;91.40;;;;;;5013462;28;20180;-84
2022/12/13 12:45:27;;;;;;;71.97;37.97;;;-1.00;91.40;;;;;;5014098;28;20212;-85
2022/12/13 12:47:58;;;;;;;83.97;44.97;;;-1.10;91.20;;;;;;5012613;28;20658;-84
2022/12/13 12:50:42;;;;;;;73.90;41.07;;;-1.00;91.20;;;;;;5012602;28;20224;-85